Time;durP1;ratioP1;P1;durP2;ratioP2;P2;SDS_P1;SDS_P2;PMS_P1;PMS_P2;Temp;Humidity;BMP_temperature;BMP_pressure;BME280_temperature;BME280_humidity;BME280_pressure;Samples;Min_cycle;Max_cycle;Signal;HPM_P1;HPM_P2
2021/03/15 00:01:09;;;;;;;3.50;2.85;;;7.10;99.90;;;;;;5050723;28;20189;-77
2021/03/15 00:03:39;;;;;;;6.60;3.47;;;7.10;99.90;;;;;;5052379;28;20649;-78
2021/03/15 00:06:05;;;;;;;5.05;2.90;;;7.10;99.90;;;;;;5065726;28;20187;-76
2021/03/15 00:08:34;;;;;;;5.50;3.50;;;7.20;99.90;;;;;;5052388;28;20177;-77
2021/03/15 00:11:01;;;;;;;6.60;4.00;;;7.20;99.90;;;;;;5051899;28;20169;-78
2021/03/15 00:13:27;;;;;;;10.50;3.70;;;7.30;99.90;;;;;;5050353;28;20180;-77
2021/03/15 00:15:57;;;;;;;6.90;3.80;;;7.30;99.90;;;;;;5050223;28;20539;-78
2021/03/15 00:18:23;;;;;;;4.97;3.28;;;7.40;99.90;;;;;;5054414;28;20541;-79
2021/03/15 00:20:49;;;;;;;4.57;2.90;;;7.40;99.90;;;;;;5033382;28;20207;-77
2021/03/15 00:23:19;;;;;;;5.50;3.42;;;7.40;99.90;;;;;;5051242;28;20643;-76
2021/03/15 00:25:44;;;;;;;8.27;3.65;;;7.50;99.90;;;;;;5051160;28;20188;-77
2021/03/15 00:28:11;;;;;;;5.63;3.90;;;7.50;99.90;;;;;;5049864;28;20197;-77
2021/03/15 00:30:37;;;;;;;8.60;3.60;;;7.60;99.90;;;;;;5050259;28;20165;-77
2021/03/15 00:33:03;;;;;;;4.75;3.60;;;7.60;99.90;;;;;;5051731;28;20188;-78
2021/03/15 00:35:29;;;;;;;6.47;3.58;;;7.70;99.90;;;;;;5034233;28;20189;-77
2021/03/15 00:37:55;;;;;;;4.97;3.40;;;7.70;99.90;;;;;;5050412;28;20165;-77
2021/03/15 00:40:24;;;;;;;6.60;3.80;;;7.80;99.90;;;;;;5052400;28;21158;-78
2021/03/15 00:42:52;;;;;;;8.73;3.65;;;7.90;99.90;;;;;;5051483;28;20177;-78
2021/03/15 00:45:24;;;;;;;6.65;4.68;;;7.90;99.90;;;;;;5050857;28;20180;-77
2021/03/15 00:47:51;;;;;;;8.60;3.53;;;8.00;99.90;;;;;;5054726;28;20161;-78
2021/03/15 00:50:27;;;;;;;4.55;2.80;;;8.00;99.90;;;;;;5053723;28;20173;-78
2021/03/15 00:52:54;;;;;;;6.82;3.90;;;8.10;99.90;;;;;;5054989;28;20258;-76
2021/03/15 00:55:24;;;;;;;12.48;4.00;;;8.10;99.90;;;;;;5058430;28;20168;-76
2021/03/15 00:57:50;;;;;;;4.47;2.78;;;8.10;99.90;;;;;;5054738;28;20222;-78
2021/03/15 01:00:21;;;;;;;6.85;3.53;;;8.20;99.90;;;;;;5053742;28;20272;-77
2021/03/15 01:03:07;;;;;;;5.45;3.88;;;8.20;99.90;;;;;;5037130;28;20208;-78
2021/03/15 01:05:40;;;;;;;6.60;3.13;;;8.20;99.90;;;;;;5053459;28;20165;-78
2021/03/15 01:08:13;;;;;;;5.85;3.83;;;8.30;99.90;;;;;;5053236;28;20177;-76
2021/03/15 01:10:41;;;;;;;5.60;3.15;;;8.30;99.90;;;;;;5065251;28;20169;-76
2021/03/15 01:13:08;;;;;;;7.93;2.75;;;8.30;99.90;;;;;;5055520;28;20203;-76
2021/03/15 01:15:34;;;;;;;5.43;3.40;;;8.40;99.90;;;;;;5054565;28;20690;-78
2021/03/15 01:18:01;;;;;;;6.60;3.88;;;8.40;99.90;;;;;;5052617;28;20185;-78
2021/03/15 01:20:28;;;;;;;7.10;4.65;;;8.40;99.90;;;;;;5036316;28;20208;-77
2021/03/15 01:22:55;;;;;;;6.13;4.30;;;8.40;99.90;;;;;;5054826;28;20188;-77
2021/03/15 01:25:29;;;;;;;10.02;5.20;;;8.40;99.90;;;;;;5055733;28;20176;-78
2021/03/15 01:27:55;;;;;;;10.07;4.93;;;8.40;99.90;;;;;;5056546;28;20164;-78
2021/03/15 01:30:24;;;;;;;5.40;4.90;;;8.40;99.90;;;;;;5039791;28;20541;-77
2021/03/15 01:32:50;;;;;;;8.65;4.75;;;8.40;99.90;;;;;;5060001;28;20184;-78
2021/03/15 01:35:16;;;;;;;10.13;4.90;;;8.50;99.90;;;;;;5053418;28;20180;-78
2021/03/15 01:37:41;;;;;;;5.50;3.90;;;8.50;99.90;;;;;;5053252;28;20169;-77
2021/03/15 01:40:08;;;;;;;9.43;4.20;;;8.50;99.90;;;;;;5036383;28;20197;-77
2021/03/15 01:42:33;;;;;;;7.25;4.03;;;8.50;99.90;;;;;;5054929;28;20193;-78
2021/03/15 01:44:59;;;;;;;6.90;4.37;;;8.50;99.90;;;;;;5052750;28;20536;-77
2021/03/15 01:47:25;;;;;;;6.37;3.47;;;8.50;99.90;;;;;;5052735;28;20169;-78
2021/03/15 01:49:52;;;;;;;4.20;2.63;;;8.50;99.90;;;;;;5052654;28;20177;-77
2021/03/15 01:52:19;;;;;;;6.15;3.15;;;8.50;99.90;;;;;;5052401;28;20665;-78
2021/03/15 01:54:45;;;;;;;4.40;2.60;;;8.50;99.90;;;;;;5054186;28;20244;-77
2021/03/15 01:57:10;;;;;;;4.60;2.70;;;8.50;99.90;;;;;;5053978;28;20191;-77
2021/03/15 01:59:36;;;;;;;5.30;2.93;;;8.50;99.90;;;;;;5054099;28;20611;-78
2021/03/15 02:02:02;;;;;;;8.20;3.23;;;8.50;99.90;;;;;;5054572;28;20192;-78
2021/03/15 02:04:28;;;;;;;4.97;2.60;;;8.50;99.90;;;;;;5053834;28;20576;-78
2021/03/15 02:06:54;;;;;;;8.77;3.83;;;8.50;99.90;;;;;;5054505;28;21147;-77
2021/03/15 02:09:20;;;;;;;7.13;3.50;;;8.40;99.90;;;;;;5056995;28;20177;-77
2021/03/15 02:11:58;;;;;;;5.40;2.70;;;8.40;99.90;;;;;;5054377;28;20699;-76
2021/03/15 02:15:40;;;;;;;6.07;2.55;;;8.40;99.90;;;;;;5054568;28;20164;-77
2021/03/15 02:18:24;;;;;;;3.25;2.22;;;8.30;99.90;;;;;;4922209;28;20185;-75
2021/03/15 02:21:24;;;;;;;8.52;3.03;;;8.30;99.90;;;;;;4974216;28;20341;-77
2021/03/15 02:24:22;;;;;;;5.18;2.30;;;8.30;99.90;;;;;;5053313;28;20172;-78
2021/03/15 02:26:56;;;;;;;4.38;2.10;;;8.30;99.90;;;;;;5022234;28;20177;-79
2021/03/15 02:30:02;;;;;;;5.25;2.85;;;8.30;99.90;;;;;;5065828;28;20160;-79
2021/03/15 02:32:57;;;;;;;5.47;2.70;;;8.30;99.90;;;;;;5068694;28;20564;-78
2021/03/15 02:35:27;;;;;;;2.80;2.10;;;8.30;99.90;;;;;;5062473;28;20177;-77
2021/03/15 02:38:03;;;;;;;3.92;2.35;;;8.30;99.90;;;;;;5064911;28;20265;-78
2021/03/15 02:40:43;;;;;;;4.88;2.83;;;8.30;99.90;;;;;;5055710;28;20223;-78
2021/03/15 02:43:14;;;;;;;3.83;2.33;;;8.30;99.90;;;;;;5052161;28;20262;-78
2021/03/15 02:45:41;;;;;;;4.95;2.85;;;8.30;99.90;;;;;;5053711;28;20173;-77
2021/03/15 02:48:11;;;;;;;4.25;3.25;;;8.30;99.90;;;;;;5054589;28;20164;-77
2021/03/15 02:50:39;;;;;;;3.80;3.40;;;8.30;99.90;;;;;;5051602;28;20183;-77
2021/03/15 02:53:09;;;;;;;5.75;3.78;;;8.30;99.90;;;;;;5051254;28;20239;-76
2021/03/15 02:55:36;;;;;;;4.35;3.33;;;8.30;99.90;;;;;;5051263;28;20541;-78
2021/03/15 02:58:04;;;;;;;5.10;2.60;;;8.30;99.90;;;;;;5052381;28;20191;-78
2021/03/15 03:00:31;;;;;;;2.85;2.30;;;8.20;99.90;;;;;;5034511;28;20215;-77
2021/03/15 03:02:59;;;;;;;6.35;2.20;;;8.20;99.90;;;;;;5052559;28;20273;-77
2021/03/15 03:05:25;;;;;;;4.85;2.63;;;8.20;99.90;;;;;;5052376;28;20161;-78
2021/03/15 03:07:53;;;;;;;3.37;2.73;;;8.20;99.90;;;;;;5051977;28;20578;-77
2021/03/15 03:10:22;;;;;;;2.63;1.90;;;8.20;99.90;;;;;;5052545;28;20571;-77
2021/03/15 03:12:50;;;;;;;3.78;1.58;;;8.20;99.90;;;;;;5052086;28;20200;-78
2021/03/15 03:15:18;;;;;;;1.60;1.40;;;8.20;99.90;;;;;;5052395;28;20260;-77
2021/03/15 03:17:45;;;;;;;3.90;2.08;;;8.20;99.90;;;;;;5052041;28;20215;-78
2021/03/15 03:20:17;;;;;;;2.20;1.23;;;8.20;99.90;;;;;;5034086;28;20200;-78
2021/03/15 03:22:45;;;;;;;1.80;1.00;;;8.20;99.90;;;;;;5053413;28;20208;-79
2021/03/15 03:25:15;;;;;;;1.30;0.80;;;8.20;99.90;;;;;;5052571;28;20751;-78
2021/03/15 03:27:41;;;;;;;2.13;1.17;;;8.20;99.90;;;;;;5051197;28;20239;-77
2021/03/15 03:30:10;;;;;;;1.90;0.98;;;8.30;99.90;;;;;;5052016;28;20199;-78
2021/03/15 03:32:41;;;;;;;1.75;0.80;;;8.30;99.90;;;;;;5052626;28;20257;-78
2021/03/15 03:35:08;;;;;;;1.20;0.70;;;8.20;99.90;;;;;;5053847;28;20170;-77
2021/03/15 03:37:34;;;;;;;1.77;1.00;;;8.30;99.90;;;;;;5052911;28;20165;-78
2021/03/15 03:40:00;;;;;;;3.55;0.80;;;8.30;99.90;;;;;;5051219;28;20224;-77
2021/03/15 03:42:26;;;;;;;1.80;0.80;;;8.30;99.90;;;;;;5052076;28;20684;-77
2021/03/15 03:44:55;;;;;;;2.20;1.20;;;8.20;99.90;;;;;;5052138;28;20256;-78
2021/03/15 03:47:24;;;;;;;2.45;0.93;;;8.30;99.90;;;;;;5051892;28;20173;-78
2021/03/15 03:49:50;;;;;;;3.45;1.20;;;8.30;99.90;;;;;;5057406;28;20173;-78
2021/03/15 03:52:20;;;;;;;1.83;1.00;;;8.30;99.90;;;;;;5058337;28;20647;-76
2021/03/15 03:54:49;;;;;;;2.22;1.00;;;8.30;99.90;;;;;;5054259;28;20161;-76
2021/03/15 03:57:22;;;;;;;2.28;1.20;;;8.30;99.90;;;;;;5051796;28;20256;-78
2021/03/15 03:59:50;;;;;;;3.35;1.20;;;8.30;99.90;;;;;;5054554;28;20180;-80
2021/03/15 04:02:20;;;;;;;2.42;1.20;;;8.30;99.90;;;;;;5055602;28;20181;-81
2021/03/15 04:04:47;;;;;;;1.40;1.00;;;8.30;99.90;;;;;;5052519;28;20161;-82
2021/03/15 04:07:19;;;;;;;2.50;1.00;;;8.40;99.90;;;;;;5034079;28;20165;-81
2021/03/15 04:09:47;;;;;;;2.80;1.30;;;8.40;99.90;;;;;;5053713;28;20197;-81
2021/03/15 04:12:16;;;;;;;2.83;1.10;;;8.40;99.90;;;;;;5053531;28;20555;-81
2021/03/15 04:14:49;;;;;;;1.73;1.00;;;8.40;99.90;;;;;;5053583;28;20168;-81
2021/03/15 04:17:22;;;;;;;2.45;1.20;;;8.40;99.90;;;;;;5054415;28;20165;-80
2021/03/15 04:19:53;;;;;;;2.10;1.00;;;8.40;99.90;;;;;;5054610;28;20208;-81
2021/03/15 04:22:25;;;;;;;3.55;2.30;;;8.40;99.90;;;;;;5066485;28;20603;-81
2021/03/15 04:24:54;;;;;;;3.72;2.40;;;8.50;99.90;;;;;;5078647;28;20169;-80
2021/03/15 04:27:24;;;;;;;3.08;1.63;;;8.50;99.90;;;;;;5077478;28;20153;-80
2021/03/15 04:29:52;;;;;;;2.17;1.80;;;8.50;99.90;;;;;;5077845;28;20187;-81
2021/03/15 04:32:18;;;;;;;2.38;2.00;;;8.50;99.90;;;;;;5078055;28;20248;-81
2021/03/15 04:34:45;;;;;;;3.15;2.13;;;8.50;99.90;;;;;;5078154;28;20198;-81
2021/03/15 04:37:12;;;;;;;4.03;2.05;;;8.50;99.90;;;;;;5079039;28;20181;-81
2021/03/15 04:39:38;;;;;;;3.00;2.00;;;8.50;99.90;;;;;;5077615;28;20273;-82
2021/03/15 04:42:05;;;;;;;3.30;2.25;;;8.50;99.90;;;;;;5062987;28;20233;-81
2021/03/15 04:44:38;;;;;;;2.83;2.10;;;8.50;99.90;;;;;;5059121;28;20161;-81
2021/03/15 04:47:05;;;;;;;2.67;2.20;;;8.50;99.90;;;;;;5059586;28;20169;-80
2021/03/15 04:49:32;;;;;;;3.28;2.80;;;8.50;99.90;;;;;;5058783;28;20165;-81
2021/03/15 04:52:01;;;;;;;3.60;2.75;;;8.60;99.90;;;;;;5060165;28;20548;-82
2021/03/15 04:54:27;;;;;;;3.60;3.03;;;8.60;99.90;;;;;;5059877;28;20248;-81
2021/03/15 04:56:54;;;;;;;6.50;3.97;;;8.60;99.90;;;;;;5062388;28;20169;-81
2021/03/15 04:59:21;;;;;;;5.20;4.70;;;8.60;99.90;;;;;;5041766;28;20200;-81
2021/03/15 05:01:49;;;;;;;4.30;3.90;;;8.60;99.90;;;;;;5038840;28;20553;-82
2021/03/15 05:04:16;;;;;;;4.88;4.10;;;8.60;99.90;;;;;;5055853;28;20165;-81
2021/03/15 05:06:44;;;;;;;5.68;4.55;;;8.60;99.90;;;;;;5056199;28;20172;-82
2021/03/15 05:09:14;;;;;;;7.63;5.20;;;8.70;99.90;;;;;;5054537;28;20556;-81
2021/03/15 05:11:42;;;;;;;5.80;4.68;;;8.60;99.90;;;;;;5037579;28;20243;-81
2021/03/15 05:14:09;;;;;;;6.30;5.55;;;8.70;99.90;;;;;;5058834;28;20153;-81
2021/03/15 05:16:36;;;;;;;6.45;5.88;;;8.70;99.90;;;;;;5056379;28;20162;-80
2021/03/15 05:19:04;;;;;;;6.25;5.65;;;8.70;99.90;;;;;;5054485;28;20230;-81
2021/03/15 05:21:33;;;;;;;6.72;6.03;;;8.70;99.90;;;;;;5054660;28;20651;-81
2021/03/15 05:24:00;;;;;;;7.20;5.80;;;8.70;99.90;;;;;;5053310;28;20198;-81
2021/03/15 05:26:28;;;;;;;8.15;6.75;;;8.70;99.90;;;;;;5037017;28;20248;-81
2021/03/15 05:28:55;;;;;;;7.05;6.40;;;8.70;99.90;;;;;;5054538;28;20169;-81
2021/03/15 05:31:22;;;;;;;7.65;6.85;;;8.70;99.90;;;;;;5054023;28;20165;-81
2021/03/15 05:33:49;;;;;;;7.45;6.65;;;8.70;99.90;;;;;;5036747;28;20223;-81
2021/03/15 05:36:16;;;;;;;7.78;7.10;;;8.70;99.90;;;;;;5054519;28;20169;-81
2021/03/15 05:38:43;;;;;;;7.13;6.43;;;8.70;99.90;;;;;;5054892;28;20589;-81
2021/03/15 05:41:12;;;;;;;7.40;5.40;;;8.60;99.90;;;;;;5054486;28;20223;-79
2021/03/15 05:43:49;;;;;;;4.90;3.83;;;8.70;99.90;;;;;;5054709;28;20191;-81
2021/03/15 05:46:59;;;;;;;3.10;2.80;;;8.60;99.90;;;;;;5053267;28;20184;-80
2021/03/15 05:49:47;;;;;;;3.13;2.10;;;8.50;99.90;;;;;;5056111;28;20173;-81
2021/03/15 05:52:45;;;;;;;2.15;1.90;;;8.50;99.90;;;;;;5058861;28;20184;-81
2021/03/15 05:55:45;;;;;;;3.10;2.00;;;8.40;99.90;;;;;;5036370;28;20177;-80
2021/03/15 05:58:45;;;;;;;2.72;1.65;;;8.30;99.90;;;;;;5047980;28;20185;-80
2021/03/15 06:01:30;;;;;;;2.17;1.98;;;8.20;99.90;;;;;;5054210;28;20197;-79
2021/03/15 06:04:23;;;;;;;3.85;2.10;;;8.10;99.90;;;;;;5053000;28;20188;-80
2021/03/15 06:06:53;;;;;;;2.20;1.92;;;8.00;99.90;;;;;;5054734;28;20165;-80
2021/03/15 06:09:27;;;;;;;2.58;1.90;;;8.00;99.90;;;;;;5054430;28;20220;-81
2021/03/15 06:12:02;;;;;;;1.98;1.77;;;8.00;99.90;;;;;;5056479;28;20189;-80
2021/03/15 06:14:29;;;;;;;1.77;1.52;;;7.90;99.90;;;;;;5054753;28;20542;-80
2021/03/15 06:16:56;;;;;;;2.63;2.30;;;7.90;99.90;;;;;;5054147;28;20185;-80
2021/03/15 06:19:24;;;;;;;2.30;2.10;;;7.90;99.90;;;;;;5054179;28;20215;-81
2021/03/15 06:21:52;;;;;;;3.20;2.13;;;7.90;99.90;;;;;;5052941;28;20672;-81
2021/03/15 06:24:19;;;;;;;3.22;2.30;;;7.90;99.90;;;;;;5054495;28;20176;-81
2021/03/15 06:26:46;;;;;;;3.80;2.85;;;7.90;99.90;;;;;;5054589;28;20252;-82
2021/03/15 06:29:14;;;;;;;3.35;3.05;;;7.90;99.90;;;;;;5043604;28;20169;-82
2021/03/15 06:31:49;;;;;;;3.50;3.07;;;7.90;99.90;;;;;;5054349;28;20193;-82
2021/03/15 06:34:16;;;;;;;4.15;3.05;;;7.90;99.90;;;;;;5054526;28;20724;-81
2021/03/15 06:36:43;;;;;;;2.85;2.60;;;8.00;99.90;;;;;;5073370;28;20168;-82
2021/03/15 06:39:11;;;;;;;4.57;4.18;;;8.00;99.90;;;;;;5072993;28;20153;-81
2021/03/15 06:41:41;;;;;;;3.97;3.50;;;8.00;99.90;;;;;;5074929;28;20169;-81
2021/03/15 06:44:08;;;;;;;4.90;4.43;;;8.10;99.90;;;;;;5074909;28;20169;-82
2021/03/15 06:46:34;;;;;;;5.20;4.30;;;8.10;99.90;;;;;;5075184;28;20228;-80
2021/03/15 06:49:03;;;;;;;5.40;4.90;;;8.10;99.90;;;;;;5062337;28;20228;-82
2021/03/15 06:51:30;;;;;;;5.50;4.90;;;8.10;99.90;;;;;;5037770;28;20185;-84
2021/03/15 06:53:56;;;;;;;5.65;4.97;;;8.10;99.90;;;;;;5036438;28;20257;-83
2021/03/15 06:56:38;;;;;;;4.40;4.00;;;8.10;99.90;;;;;;5037447;28;20621;-84
2021/03/15 06:59:07;;;;;;;4.57;4.22;;;8.20;99.90;;;;;;5038812;28;20577;-84
2021/03/15 07:01:42;;;;;;;6.00;5.40;;;8.20;99.90;;;;;;5020311;28;20244;-83
2021/03/15 07:04:12;;;;;;;5.65;5.05;;;8.20;99.90;;;;;;5034655;28;20214;-80
2021/03/15 07:06:41;;;;;;;4.65;4.25;;;8.20;99.90;;;;;;5035479;28;20184;-80
2021/03/15 07:09:33;;;;;;;5.95;5.38;;;8.20;99.90;;;;;;5031209;28;20301;-79
2021/03/15 07:12:03;;;;;;;4.90;4.50;;;8.20;99.90;;;;;;5032629;28;20550;-80
2021/03/15 07:14:29;;;;;;;5.57;5.07;;;8.20;99.90;;;;;;5014766;28;20173;-83
2021/03/15 07:17:01;;;;;;;4.70;4.27;;;8.30;99.90;;;;;;5032625;28;20659;-79
2021/03/15 07:19:27;;;;;;;5.25;4.75;;;8.40;99.90;;;;;;5030871;28;21003;-82
2021/03/15 07:21:53;;;;;;;6.80;5.70;;;8.50;99.90;;;;;;5014057;28;20355;-82
2021/03/15 07:24:19;;;;;;;5.37;4.83;;;8.50;99.90;;;;;;5031045;28;20245;-81
2021/03/15 07:26:45;;;;;;;5.90;5.32;;;8.60;99.90;;;;;;5032058;28;20587;-82
2021/03/15 07:29:15;;;;;;;5.97;5.38;;;8.70;99.90;;;;;;5031817;28;20173;-81
2021/03/15 07:31:47;;;;;;;5.95;4.75;;;8.80;99.90;;;;;;5030980;28;20228;-81
2021/03/15 07:34:14;;;;;;;8.00;5.65;;;8.90;99.90;;;;;;5031916;28;20204;-81
2021/03/15 07:36:59;;;;;;;5.70;4.65;;;9.00;99.90;;;;;;5030650;28;20252;-82
2021/03/15 07:39:31;;;;;;;6.95;6.25;;;9.00;99.90;;;;;;5031480;28;20238;-82
2021/03/15 07:41:59;;;;;;;7.35;5.85;;;9.10;99.90;;;;;;5031626;28;20291;-80
2021/03/15 07:44:33;;;;;;;7.03;6.07;;;9.20;99.90;;;;;;5031486;28;20227;-82
2021/03/15 07:47:05;;;;;;;7.15;6.53;;;9.20;99.90;;;;;;5030202;28;20195;-82
2021/03/15 07:49:39;;;;;;;6.60;4.82;;;9.20;99.90;;;;;;5023811;28;20169;-79
2021/03/15 07:52:07;;;;;;;6.80;4.75;;;9.20;99.90;;;;;;5026566;28;20662;-80
2021/03/15 07:54:41;;;;;;;7.43;5.32;;;9.20;99.90;;;;;;5027612;28;20177;-79
2021/03/15 07:57:20;;;;;;;5.60;5.00;;;9.20;99.90;;;;;;5049317;28;20188;-79
2021/03/15 07:59:51;;;;;;;7.22;4.95;;;9.30;99.90;;;;;;5051944;28;20523;-79
2021/03/15 08:02:31;;;;;;;4.72;4.30;;;9.20;99.90;;;;;;5026922;28;20200;-80
2021/03/15 08:04:58;;;;;;;5.35;4.65;;;9.30;99.90;;;;;;5051243;28;20181;-79
2021/03/15 08:07:24;;;;;;;4.28;3.80;;;9.60;99.90;;;;;;5051105;28;20169;-80
2021/03/15 08:09:55;;;;;;;6.50;4.05;;;10.20;99.90;;;;;;5055982;28;20179;-79
2021/03/15 08:12:27;;;;;;;5.85;3.95;;;10.60;99.90;;;;;;5062926;28;20253;-81
2021/03/15 08:15:15;;;;;;;4.90;4.50;;;10.90;99.90;;;;;;5070134;28;20591;-80
2021/03/15 08:17:45;;;;;;;8.20;4.10;;;11.30;99.90;;;;;;5071527;28;20173;-79
2021/03/15 08:20:12;;;;;;;4.07;3.67;;;11.80;99.90;;;;;;5073349;28;20329;-81
2021/03/15 08:22:43;;;;;;;5.10;4.18;;;12.20;99.90;;;;;;5071221;28;20270;-80
2021/03/15 08:25:10;;;;;;;7.30;4.18;;;12.60;99.90;;;;;;5071308;28;20165;-79
2021/03/15 08:27:40;;;;;;;4.38;3.25;;;12.80;99.90;;;;;;5071853;28;20211;-79
2021/03/15 08:30:14;;;;;;;5.18;4.68;;;13.30;99.90;;;;;;5053250;28;20648;-80
2021/03/15 08:32:42;;;;;;;4.32;3.40;;;13.60;99.90;;;;;;5071730;28;20191;-81
2021/03/15 08:35:16;;;;;;;6.00;3.25;;;13.80;99.90;;;;;;5071337;28;20176;-80
2021/03/15 08:38:05;;;;;;;4.25;3.92;;;13.90;99.90;;;;;;5070055;28;20243;-79
2021/03/15 08:40:45;;;;;;;11.00;3.60;;;13.90;99.90;;;;;;5071060;28;20204;-80
2021/03/15 08:43:18;;;;;;;6.72;3.80;;;13.90;99.90;;;;;;5065658;28;20219;-79
2021/03/15 08:46:03;;;;;;;5.53;3.75;;;13.90;99.90;;;;;;5057757;28;20213;-81
2021/03/15 08:48:36;;;;;;;3.92;3.53;;;13.80;99.90;;;;;;5040142;28;20629;-79
2021/03/15 08:51:07;;;;;;;3.33;2.97;;;13.50;99.90;;;;;;5053709;28;20161;-77
2021/03/15 08:53:42;;;;;;;3.75;2.63;;;13.30;99.90;;;;;;5071296;28;20187;-76
2021/03/15 08:56:34;;;;;;;4.13;3.67;;;13.20;99.90;;;;;;5070105;28;20172;-77
2021/03/15 08:59:01;;;;;;;5.05;2.45;;;13.30;99.90;;;;;;5065056;28;20196;-76
2021/03/15 09:01:47;;;;;;;5.50;2.50;;;13.60;99.90;;;;;;5065538;28;20206;-76
2021/03/15 09:04:42;;;;;;;5.45;2.78;;;13.60;99.90;;;;;;5070006;28;20550;-76
2021/03/15 09:07:39;;;;;;;6.28;2.97;;;13.60;99.90;;;;;;5072854;28;20507;-74
2021/03/15 09:10:23;;;;;;;4.70;2.80;;;13.40;99.90;;;;;;5072726;28;20180;-75
2021/03/15 09:13:10;;;;;;;4.47;2.13;;;13.30;99.90;;;;;;5074819;28;20192;-76
2021/03/15 09:15:38;;;;;;;3.20;2.70;;;13.10;99.90;;;;;;5055594;28;20233;-76
2021/03/15 09:18:43;;;;;;;6.78;3.00;;;12.90;99.90;;;;;;5072450;28;20168;-76
2021/03/15 09:21:27;;;;;;;4.30;2.33;;;12.70;99.90;;;;;;5074036;28;20203;-74
2021/03/15 09:24:00;;;;;;;6.85;3.72;;;12.50;99.90;;;;;;5074037;28;20587;-75
2021/03/15 09:26:29;;;;;;;6.63;3.35;;;12.30;99.90;;;;;;5074058;28;20165;-75
2021/03/15 09:28:58;;;;;;;4.38;3.58;;;12.10;99.90;;;;;;5072607;28;20179;-75
2021/03/15 09:31:27;;;;;;;4.50;4.10;;;11.90;99.90;;;;;;5074165;28;20846;-75
2021/03/15 09:33:56;;;;;;;5.60;3.70;;;11.80;99.90;;;;;;5077601;28;20570;-74
2021/03/15 09:36:29;;;;;;;6.30;3.60;;;11.70;99.90;;;;;;5074014;28;20596;-75
2021/03/15 09:38:56;;;;;;;3.55;3.20;;;11.70;99.90;;;;;;5072464;28;20655;-76
2021/03/15 09:41:26;;;;;;;8.10;3.97;;;11.60;99.90;;;;;;5072241;28;20207;-75
2021/03/15 09:43:55;;;;;;;4.75;4.10;;;11.60;99.90;;;;;;5056367;28;20251;-76
2021/03/15 09:46:25;;;;;;;6.70;3.83;;;11.50;99.90;;;;;;5073907;28;20248;-76
2021/03/15 09:48:51;;;;;;;8.40;3.78;;;11.50;99.90;;;;;;5068686;28;20172;-77
2021/03/15 09:51:25;;;;;;;5.97;3.27;;;11.50;99.90;;;;;;5053973;28;20629;-76
2021/03/15 09:54:43;;;;;;;6.47;3.75;;;11.40;99.90;;;;;;5040430;28;20582;-74
2021/03/15 09:57:10;;;;;;;5.72;3.20;;;11.40;99.90;;;;;;5053548;28;20165;-74
2021/03/15 10:00:13;;;;;;;5.00;3.30;;;11.40;99.90;;;;;;5035390;28;20657;-76
2021/03/15 10:02:50;;;;;;;11.75;5.38;;;11.30;99.90;;;;;;5045381;28;20272;-76
2021/03/15 10:05:34;;;;;;;9.48;2.90;;;11.30;99.90;;;;;;5033434;28;20165;-77
2021/03/15 10:08:19;;;;;;;4.95;2.47;;;11.30;99.90;;;;;;5031978;28;20162;-76
2021/03/15 10:11:03;;;;;;;8.10;2.90;;;11.30;99.90;;;;;;5037211;28;20165;-75
2021/03/15 10:14:07;;;;;;;5.18;2.90;;;11.40;99.90;;;;;;4963661;28;20180;-75
2021/03/15 10:17:03;;;;;;;3.35;1.77;;;11.40;99.90;;;;;;4968634;28;20176;-75
2021/03/15 10:19:52;;;;;;;4.10;2.70;;;11.40;99.90;;;;;;5038142;28;20215;-75
2021/03/15 10:22:19;;;;;;;9.53;3.27;;;11.50;99.90;;;;;;5051649;28;20185;-75
2021/03/15 10:24:51;;;;;;;7.00;3.05;;;12.00;99.90;;;;;;5051752;28;20570;-75
2021/03/15 10:27:23;;;;;;;4.80;2.00;;;12.70;99.90;;;;;;5051655;28;20165;-75
2021/03/15 10:29:54;;;;;;;3.03;2.60;;;13.60;99.90;;;;;;5051244;28;20587;-76
2021/03/15 10:32:29;;;;;;;4.00;2.03;;;14.60;99.90;;;;;;5034856;28;20738;-75
2021/03/15 10:34:57;;;;;;;4.80;1.70;;;15.40;99.90;;;;;;5051920;28;20568;-76
2021/03/15 10:37:25;;;;;;;5.40;1.50;;;16.20;99.90;;;;;;5049473;28;20603;-76
2021/03/15 10:40:10;;;;;;;3.60;1.10;;;16.80;99.90;;;;;;5038574;28;20630;-77
2021/03/15 10:42:38;;;;;;;4.27;1.50;;;17.40;99.90;;;;;;5026966;28;21260;-76
2021/03/15 10:45:11;;;;;;;2.83;1.10;;;17.90;99.90;;;;;;5062939;28;20625;-76
2021/03/15 10:47:40;;;;;;;5.23;1.10;;;18.10;99.90;;;;;;5064107;28;20575;-76
2021/03/15 10:50:29;;;;;;;4.57;1.40;;;18.10;99.90;;;;;;5069836;28;20598;-75
2021/03/15 10:53:22;;;;;;;6.73;2.17;;;18.00;99.90;;;;;;5057377;28;20645;-76
2021/03/15 10:55:51;;;;;;;3.33;1.20;;;17.80;99.90;;;;;;5071457;28;20661;-76
2021/03/15 10:58:22;;;;;;;6.63;1.73;;;17.40;99.90;;;;;;5070842;28;20575;-77
2021/03/15 11:01:01;;;;;;;7.80;1.80;;;17.00;99.90;;;;;;5069526;28;20613;-76
2021/03/15 11:03:32;;;;;;;4.27;1.50;;;16.50;99.90;;;;;;5064393;28;20616;-76
2021/03/15 11:06:08;;;;;;;3.77;1.33;;;16.10;99.90;;;;;;5053965;28;20566;-77
2021/03/15 11:08:37;;;;;;;6.97;1.30;;;15.60;99.90;;;;;;5054284;28;20617;-75
2021/03/15 11:11:21;;;;;;;5.95;1.50;;;15.30;99.90;;;;;;5064794;28;20612;-74
2021/03/15 11:13:54;;;;;;;3.03;1.80;;;14.90;99.90;;;;;;5069966;28;20742;-74
2021/03/15 11:16:29;;;;;;;2.85;1.20;;;14.30;99.90;;;;;;5070155;28;20184;-75
2021/03/15 11:19:04;;;;;;;4.72;1.25;;;13.70;99.90;;;;;;5069652;28;20188;-76
2021/03/15 11:21:37;;;;;;;4.13;2.20;;;13.20;99.90;;;;;;5053460;28;20208;-75
2021/03/15 11:24:09;;;;;;;3.28;1.00;;;12.70;99.90;;;;;;5069160;28;20164;-74
2021/03/15 11:27:09;;;;;;;3.15;1.63;;;12.30;99.90;;;;;;5031384;28;20175;-76
2021/03/15 11:29:52;;;;;;;5.05;2.13;;;11.90;99.90;;;;;;5070030;28;20522;-76
2021/03/15 11:33:07;;;;;;;3.58;1.45;;;11.60;99.90;;;;;;5048154;28;20256;-77
2021/03/15 11:35:50;;;;;;;2.75;1.10;;;11.60;99.90;;;;;;5070579;28;20191;-76
2021/03/15 11:38:24;;;;;;;1.83;0.80;;;11.90;99.90;;;;;;5070018;28;20207;-76
2021/03/15 11:40:56;;;;;;;4.25;1.58;;;12.10;99.90;;;;;;5070257;28;20200;-75
2021/03/15 11:43:24;;;;;;;4.70;1.25;;;12.30;99.90;;;;;;5069258;28;20259;-75
2021/03/15 11:46:05;;;;;;;6.97;3.33;;;12.50;99.90;;;;;;5043745;28;20173;-76
2021/03/15 11:48:32;;;;;;;5.40;2.75;;;12.90;99.90;;;;;;5069814;28;20210;-77
2021/03/15 11:51:15;;;;;;;6.72;3.80;;;13.30;99.90;;;;;;5070243;28;20179;-77
2021/03/15 11:53:55;;;;;;;6.37;1.67;;;13.50;99.90;;;;;;5056108;28;20512;-76
2021/03/15 11:56:21;;;;;;;5.23;1.73;;;14.00;99.90;;;;;;5070407;28;20602;-77
2021/03/15 11:58:53;;;;;;;3.77;1.10;;;14.30;99.90;;;;;;5069329;28;20584;-75
2021/03/15 12:01:19;;;;;;;5.47;1.20;;;14.50;99.90;;;;;;5071076;28;20622;-75
2021/03/15 12:03:53;;;;;;;2.90;0.97;;;14.90;99.90;;;;;;5069945;28;20566;-76
2021/03/15 12:06:28;;;;;;;4.67;1.30;;;15.20;99.90;;;;;;5070199;28;20594;-75
2021/03/15 12:09:07;;;;;;;4.87;2.63;;;15.60;99.90;;;;;;5069541;28;20598;-76
2021/03/15 12:11:37;;;;;;;2.47;1.37;;;15.90;99.90;;;;;;5068648;28;20594;-76
2021/03/15 12:14:06;;;;;;;6.00;1.73;;;16.00;99.90;;;;;;5060293;28;20591;-76
2021/03/15 12:16:33;;;;;;;3.33;1.13;;;16.10;99.90;;;;;;5053101;28;20578;-76
2021/03/15 12:18:59;;;;;;;3.63;1.00;;;16.30;99.90;;;;;;5070686;28;20582;-75
2021/03/15 12:21:29;;;;;;;3.23;1.00;;;16.40;99.90;;;;;;5070345;28;20626;-76
2021/03/15 12:24:06;;;;;;;3.27;1.30;;;16.40;99.90;;;;;;5070168;28;20677;-75
2021/03/15 12:26:39;;;;;;;4.47;1.27;;;16.40;99.90;;;;;;5070082;28;20616;-76
2021/03/15 12:29:09;;;;;;;2.07;0.90;;;16.20;99.90;;;;;;5053623;28;20584;-75
2021/03/15 12:31:44;;;;;;;3.70;0.90;;;16.00;99.90;;;;;;5069686;28;20969;-75
2021/03/15 12:34:10;;;;;;;2.47;0.90;;;15.70;99.90;;;;;;5069695;28;20570;-76
2021/03/15 12:36:37;;;;;;;3.63;1.10;;;15.50;99.90;;;;;;5071117;28;20566;-75
2021/03/15 12:39:03;;;;;;;4.10;0.90;;;15.30;99.90;;;;;;5037086;28;20590;-76
2021/03/15 12:41:36;;;;;;;3.60;0.80;;;15.20;99.90;;;;;;5061573;28;20635;-76
2021/03/15 12:44:03;;;;;;;3.30;1.30;;;15.00;99.90;;;;;;5052808;28;20726;-75
2021/03/15 12:46:31;;;;;;;2.70;1.20;;;14.70;99.90;;;;;;5045787;28;20623;-75
2021/03/15 12:49:19;;;;;;;8.10;0.87;;;14.60;99.90;;;;;;5052669;28;20591;-75
2021/03/15 12:51:48;;;;;;;4.85;0.80;;;14.60;99.90;;;;;;5047888;28;20634;-76
2021/03/15 12:54:15;;;;;;;3.92;1.50;;;14.50;99.90;;;;;;5048121;28;20172;-76
2021/03/15 12:56:49;;;;;;;3.07;1.27;;;14.40;99.90;;;;;;5064970;28;20182;-76
2021/03/15 12:59:18;;;;;;;3.13;0.93;;;14.40;99.90;;;;;;5031895;28;20676;-76
2021/03/15 13:01:47;;;;;;;3.80;1.80;;;14.40;99.90;;;;;;5033306;28;20201;-76
2021/03/15 13:04:16;;;;;;;3.10;1.00;;;14.50;99.90;;;;;;5033347;28;20966;-76
2021/03/15 13:06:49;;;;;;;2.40;0.63;;;14.70;99.90;;;;;;5017386;28;20559;-77
2021/03/15 13:09:43;;;;;;;4.43;0.95;;;14.70;99.90;;;;;;5045318;28;20681;-76
2021/03/15 13:12:17;;;;;;;3.03;1.23;;;14.70;99.90;;;;;;5057123;28;20220;-76
2021/03/15 13:14:57;;;;;;;4.23;0.70;;;14.80;99.90;;;;;;5073712;28;21001;-76
2021/03/15 13:17:52;;;;;;;1.90;0.80;;;15.00;99.90;;;;;;5045349;28;20608;-77
2021/03/15 13:20:41;;;;;;;2.57;0.80;;;15.00;99.90;;;;;;5073414;28;20668;-75
2021/03/15 13:23:15;;;;;;;1.40;0.90;;;14.90;99.90;;;;;;5072896;28;20604;-76